createdAt,value
2022-09-06T00:00:29.775Z,0.90
2022-09-06T00:01:08.914Z,0.70
2022-09-06T00:01:44.568Z,0.93
2022-09-06T00:02:20.216Z,0.88
2022-09-06T00:02:54.851Z,0.82
2022-09-06T00:03:29.615Z,0.98
2022-09-06T00:04:03.140Z,0.80
2022-09-06T00:04:37.563Z,0.70
2022-09-06T00:05:12.609Z,1.00
2022-09-06T00:05:47.917Z,0.80
2022-09-06T00:06:21.912Z,0.73
2022-09-06T00:06:56.784Z,1.00
2022-09-06T00:07:30.520Z,0.90
2022-09-06T00:08:06.020Z,0.90
2022-09-06T00:08:41.382Z,0.90
2022-09-06T00:09:16.451Z,0.90
2022-09-06T00:09:49.530Z,0.90
2022-09-06T00:10:25.107Z,0.90
2022-09-06T00:11:01.260Z,0.90
2022-09-06T00:11:35.411Z,0.88
2022-09-06T00:12:10.684Z,0.95
2022-09-06T00:12:43.750Z,1.20
2022-09-06T00:13:19.277Z,0.90
2022-09-06T00:13:54.680Z,0.80
2022-09-06T00:14:29.417Z,0.90
2022-09-06T00:15:03.809Z,0.90
2022-09-06T00:15:40.180Z,0.90
2022-09-06T00:16:15.061Z,0.82
2022-09-06T00:16:49.685Z,0.95
2022-09-06T00:17:24.310Z,0.73
2022-09-06T00:18:00.126Z,0.70
2022-09-06T00:18:34.616Z,0.90
2022-09-06T00:19:10.996Z,0.80
2022-09-06T00:19:46.403Z,0.90
2022-09-06T00:20:20.420Z,1.00
2022-09-06T00:20:57.114Z,0.90
2022-09-06T00:21:32.368Z,0.75
2022-09-06T00:22:06.697Z,0.90
2022-09-06T00:22:42.153Z,0.80
2022-09-06T00:23:16.170Z,0.90
2022-09-06T00:23:50.292Z,0.90
2022-09-06T00:24:24.443Z,0.98
2022-09-06T00:24:59.179Z,0.82
2022-09-06T00:25:33.222Z,1.10
2022-09-06T00:26:08.791Z,1.10
2022-09-06T00:26:43.498Z,0.90
2022-09-06T00:27:16.990Z,1.17
2022-09-06T00:27:56.736Z,1.00
2022-09-06T00:28:30.236Z,0.90
2022-09-06T00:29:05.654Z,1.10
2022-09-06T00:29:40.276Z,0.80
2022-09-06T00:30:15.375Z,1.00
2022-09-06T00:30:51.026Z,1.10
2022-09-06T00:31:26.229Z,1.10
2022-09-06T00:32:00.881Z,1.00
2022-09-06T00:32:36.469Z,1.02
2022-09-06T00:33:11.582Z,1.10
2022-09-06T00:33:46.260Z,1.00
2022-09-06T00:34:22.129Z,0.85
2022-09-06T00:34:57.397Z,1.05
2022-09-06T00:35:31.543Z,0.90
2022-09-06T00:36:08.884Z,1.00
2022-09-06T00:36:44.020Z,0.80
2022-09-06T00:37:17.435Z,1.38
2022-09-06T00:37:53.223Z,0.80
2022-09-06T00:38:27.560Z,1.20
2022-09-06T00:39:01.189Z,1.25
2022-09-06T00:39:36.630Z,0.88
2022-09-06T00:40:10.777Z,1.13
2022-09-06T00:40:45.129Z,0.90
2022-09-06T00:41:19.680Z,0.90
2022-09-06T00:41:53.881Z,1.10
2022-09-06T00:42:28.723Z,0.98
2022-09-06T00:43:03.199Z,1.10
2022-09-06T00:43:37.395Z,1.00
2022-09-06T00:44:12.648Z,1.02
2022-09-06T00:44:46.195Z,0.80
2022-09-06T00:45:21.717Z,1.00
2022-09-06T00:45:58.262Z,0.85
2022-09-06T00:46:33.479Z,0.77
2022-09-06T00:47:09.109Z,1.00
2022-09-06T00:47:44.859Z,1.08
2022-09-06T00:48:18.222Z,0.80
2022-09-06T00:48:54.073Z,0.82
2022-09-06T00:49:31.494Z,0.68
2022-09-06T00:50:06.668Z,0.90
2022-09-06T00:50:41.171Z,0.95
2022-09-06T00:51:18.729Z,0.90
2022-09-06T00:51:54.057Z,0.93
2022-09-06T00:52:28.276Z,1.05
2022-09-06T00:53:03.740Z,0.90
2022-09-06T00:53:38.265Z,1.20
2022-09-06T00:54:13.247Z,1.05
2022-09-06T00:54:48.207Z,1.05
2022-09-06T00:55:25.281Z,1.25
2022-09-06T00:55:59.429Z,1.17
2022-09-06T00:56:33.370Z,1.00
2022-09-06T00:57:09.732Z,0.80
2022-09-06T00:57:51.180Z,0.73
2022-09-06T00:58:26.353Z,0.90
2022-09-06T00:59:02.456Z,0.85
2022-09-06T00:59:38.420Z,0.80
2022-09-06T01:00:17.210Z,0.90
2022-09-06T01:00:52.992Z,0.90
2022-09-06T01:01:28.491Z,0.85
2022-09-06T01:02:03.334Z,0.77
2022-09-06T01:02:38.867Z,0.80
2022-09-06T01:03:13.976Z,1.10
2022-09-06T01:03:47.702Z,0.80
2022-09-06T01:04:22.068Z,0.90
2022-09-06T01:04:55.798Z,0.73
2022-09-06T01:05:35.591Z,0.70
2022-09-06T01:06:16.079Z,0.90
2022-09-06T01:07:32.052Z,0.75
2022-09-06T01:08:12.051Z,1.00
2022-09-06T01:08:54.741Z,0.77
2022-09-06T01:09:35.574Z,1.00
2022-09-06T01:10:20.134Z,0.80
2022-09-06T01:11:03.202Z,0.90
2022-09-06T01:11:44.057Z,0.80
2022-09-06T01:12:26.645Z,0.63
2022-09-06T01:13:06.913Z,0.80
2022-09-06T01:13:47.119Z,0.73
2022-09-06T01:15:02.333Z,0.82
2022-09-06T01:15:44.011Z,0.80
2022-09-06T01:16:24.663Z,0.90
2022-09-06T01:17:04.176Z,0.80
2022-09-06T01:17:47.044Z,0.70
2022-09-06T01:18:26.475Z,0.90
2022-09-06T01:19:13.497Z,0.68
2022-09-06T01:20:03.947Z,0.63
2022-09-06T01:20:48.747Z,0.80
2022-09-06T01:21:31.093Z,1.13
2022-09-06T01:22:11.159Z,0.80
2022-09-06T01:23:05.392Z,0.80
2022-09-06T01:23:52.607Z,0.70
2022-09-06T01:24:59.585Z,0.77
2022-09-06T01:25:38.687Z,0.93
2022-09-06T01:26:25.179Z,0.80
2022-09-06T01:27:19.150Z,0.98
2022-09-06T01:28:05.752Z,0.90
2022-09-06T01:28:42.261Z,0.80
2022-09-06T01:29:17.935Z,0.70
2022-09-06T01:29:53.075Z,0.82
2022-09-06T01:30:27.173Z,0.95
2022-09-06T01:31:17.694Z,0.93
2022-09-06T01:31:54.346Z,1.00
2022-09-06T01:32:32.175Z,0.80
2022-09-06T01:33:09.575Z,0.88
2022-09-06T01:33:46.428Z,0.90
2022-09-06T01:34:24.460Z,0.70
2022-09-06T01:35:01.537Z,0.70
2022-09-06T01:35:36.753Z,0.98
2022-09-06T01:36:13.827Z,1.08
2022-09-06T01:37:08.861Z,0.88
2022-09-06T01:37:47.746Z,0.82
2022-09-06T01:38:21.468Z,0.70
2022-09-06T01:38:56.604Z,0.77
2022-09-06T01:39:31.782Z,0.75
2022-09-06T01:40:09.342Z,0.90
2022-09-06T01:40:42.614Z,0.90
2022-09-06T01:41:17.103Z,0.90
2022-09-06T01:41:53.330Z,0.80
2022-09-06T01:42:27.979Z,0.98
2022-09-06T01:43:04.566Z,0.90
2022-09-06T01:43:44.193Z,0.80
2022-09-06T01:44:18.877Z,1.00
2022-09-06T01:44:54.749Z,0.95
2022-09-06T01:45:37.317Z,1.00
2022-09-06T01:46:16.110Z,0.90
2022-09-06T01:46:54.857Z,0.95
2022-09-06T01:47:36.085Z,0.90
2022-09-06T01:48:13.581Z,1.00
2022-09-06T01:49:03.953Z,0.93
2022-09-06T01:49:42.971Z,1.10
2022-09-06T01:50:42.888Z,1.00
2022-09-06T01:51:23.500Z,1.00
2022-09-06T01:52:00.978Z,1.08
2022-09-06T01:52:39.447Z,0.95
2022-09-06T01:53:19.199Z,1.10
2022-09-06T01:54:00.954Z,1.10
2022-09-06T01:54:42.488Z,1.08
2022-09-06T01:55:22.905Z,0.90
2022-09-06T01:56:02.510Z,1.13
2022-09-06T01:56:40.432Z,1.00
2022-09-06T01:57:22.627Z,0.80
2022-09-06T01:58:04.465Z,0.80
2022-09-06T01:58:50.094Z,0.80
2022-09-06T01:59:33.624Z,0.90
2022-09-06T02:00:09.866Z,0.68
2022-09-06T02:00:51.036Z,0.90
2022-09-06T02:01:30.239Z,0.95
2022-09-06T02:02:08.204Z,1.00
2022-09-06T02:02:46.014Z,0.90
2022-09-06T02:03:26.582Z,1.35
2022-09-06T02:04:02.473Z,1.10
2022-09-06T02:04:42.192Z,1.10
2022-09-06T02:05:23.639Z,1.08
2022-09-06T02:05:58.712Z,1.00
2022-09-06T02:06:35.179Z,0.90
2022-09-06T02:07:12.487Z,0.90
2022-09-06T02:07:49.620Z,0.82
2022-09-06T02:08:27.389Z,0.95
2022-09-06T02:09:04.639Z,0.95
2022-09-06T02:09:41.170Z,0.90
2022-09-06T02:10:19.504Z,0.93
2022-09-06T02:10:57.359Z,0.98
2022-09-06T02:11:34.399Z,1.00
2022-09-06T02:12:13.036Z,0.90
2022-09-06T02:12:48.922Z,1.10
2022-09-06T02:13:25.300Z,0.80
2022-09-06T02:14:04.181Z,0.70
2022-09-06T02:14:40.060Z,0.80
2022-09-06T02:15:16.139Z,0.70
2022-09-06T02:15:54.547Z,1.00
2022-09-06T02:16:31.039Z,0.90
2022-09-06T02:17:06.587Z,1.00
2022-09-06T02:17:44.911Z,0.80
2022-09-06T02:18:20.470Z,0.90
2022-09-06T02:18:55.567Z,0.70
2022-09-06T02:19:35.715Z,0.70
2022-09-06T02:20:11.624Z,0.88
2022-09-06T02:20:48.951Z,0.90
2022-09-06T02:21:25.489Z,0.90
2022-09-06T02:22:01.121Z,0.90
2022-09-06T02:22:38.847Z,0.95
2022-09-06T02:23:14.968Z,1.00
2022-09-06T02:23:49.328Z,0.80
2022-09-06T02:24:24.140Z,1.00
2022-09-06T02:25:01.757Z,1.10
2022-09-06T02:25:39.026Z,0.80
2022-09-06T02:26:16.569Z,1.00
2022-09-06T02:26:50.832Z,0.88
2022-09-06T02:27:25.464Z,1.05
2022-09-06T02:28:00.080Z,1.05
2022-09-06T02:28:34.648Z,1.10
2022-09-06T02:29:10.872Z,0.80
2022-09-06T02:29:47.692Z,0.90
2022-09-06T02:30:21.332Z,1.55
2022-09-06T02:30:57.921Z,0.90
2022-09-06T02:31:34.734Z,0.90
2022-09-06T02:32:10.133Z,0.82
2022-09-06T02:32:46.154Z,0.70
2022-09-06T02:33:22.155Z,1.00
2022-09-06T02:33:55.747Z,0.90
2022-09-06T02:34:29.643Z,0.90
2022-09-06T02:35:08.527Z,1.00
2022-09-06T02:35:46.234Z,1.00
2022-09-06T02:36:20.359Z,0.85
2022-09-06T02:36:55.968Z,0.90
2022-09-06T02:37:29.711Z,1.00
2022-09-06T02:38:04.862Z,0.80
2022-09-06T02:38:40.987Z,1.00
2022-09-06T02:39:14.320Z,0.80
2022-09-06T02:39:49.214Z,0.90
2022-09-06T02:40:25.038Z,1.00
2022-09-06T02:40:59.151Z,0.90
2022-09-06T02:41:33.558Z,0.90
2022-09-06T02:42:08.502Z,1.10
2022-09-06T02:42:43.001Z,1.00
2022-09-06T02:43:16.666Z,0.88
2022-09-06T02:43:52.586Z,0.85
2022-09-06T02:44:30.389Z,1.05
2022-09-06T02:45:05.751Z,1.10
2022-09-06T02:45:41.212Z,1.10
2022-09-06T02:46:16.030Z,1.20
2022-09-06T02:46:56.353Z,1.20
2022-09-06T02:47:31.616Z,1.40
2022-09-06T02:48:05.637Z,1.15
2022-09-06T02:48:39.808Z,1.23
2022-09-06T02:49:14.459Z,1.17
2022-09-06T02:49:47.533Z,1.20
2022-09-06T02:50:21.610Z,1.10
2022-09-06T02:50:57.148Z,1.20
2022-09-06T02:51:30.751Z,1.33
2022-09-06T02:52:05.143Z,1.00
2022-09-06T02:52:40.264Z,1.10
2022-09-06T02:53:15.249Z,1.30
2022-09-06T02:53:48.305Z,1.10
2022-09-06T02:54:24.241Z,1.30
2022-09-06T02:54:58.263Z,1.40
2022-09-06T02:55:32.316Z,1.30
2022-09-06T02:56:07.241Z,1.40
2022-09-06T02:56:42.969Z,1.25
2022-09-06T02:57:17.249Z,1.45
2022-09-06T02:57:53.046Z,1.40
2022-09-06T02:58:27.709Z,1.48
2022-09-06T02:59:00.790Z,1.40
2022-09-06T02:59:38.194Z,1.30
2022-09-06T03:00:14.674Z,1.75
2022-09-06T03:00:49.469Z,1.73
2022-09-06T03:01:25.508Z,1.70
2022-09-06T03:01:59.217Z,1.55
2022-09-06T03:02:33.059Z,1.52
2022-09-06T03:03:09.003Z,1.70
2022-09-06T03:03:43.366Z,1.50
2022-09-06T03:04:19.928Z,1.90
2022-09-06T03:04:54.794Z,1.90
2022-09-06T03:05:29.359Z,1.90
2022-09-06T03:06:04.124Z,1.67
2022-09-06T03:06:37.673Z,1.90
2022-09-06T03:07:12.478Z,2.15
2022-09-06T03:07:46.561Z,2.00
2022-09-06T03:08:20.515Z,1.98
2022-09-06T03:08:54.539Z,1.50
2022-09-06T03:09:29.948Z,2.00
2022-09-06T03:10:04.909Z,1.90
2022-09-06T03:10:38.862Z,1.80
2022-09-06T03:11:14.008Z,1.63
2022-09-06T03:11:49.564Z,1.67
2022-09-06T03:12:24.238Z,1.73
2022-09-06T03:12:59.878Z,1.80
2022-09-06T03:13:33.997Z,2.10
2022-09-06T03:14:08.407Z,1.70
2022-09-06T03:14:46.137Z,1.85
2022-09-06T03:15:22.199Z,1.90
2022-09-06T03:15:58.093Z,2.15
2022-09-06T03:16:34.702Z,2.10
2022-09-06T03:17:08.425Z,2.22
2022-09-06T03:17:42.235Z,1.98
2022-09-06T03:18:17.817Z,2.10
2022-09-06T03:18:54.685Z,2.35
2022-09-06T03:19:30.067Z,2.20
2022-09-06T03:20:04.599Z,2.30
2022-09-06T03:20:39.201Z,2.17
2022-09-06T03:21:14.287Z,2.08
2022-09-06T03:21:49.269Z,2.42
2022-09-06T03:22:23.029Z,1.95
2022-09-06T03:22:58.297Z,1.92
2022-09-06T03:23:33.644Z,2.20
2022-09-06T03:24:07.477Z,2.05
2022-09-06T03:24:41.482Z,2.00
2022-09-06T03:25:15.563Z,1.98
2022-09-06T03:25:50.390Z,1.95
2022-09-06T03:26:25.983Z,1.80
2022-09-06T03:27:00.041Z,1.80
2022-09-06T03:27:33.987Z,1.63
2022-09-06T03:28:09.684Z,1.70
2022-09-06T03:28:43.276Z,1.52
2022-09-06T03:29:17.760Z,2.00
2022-09-06T03:29:53.703Z,1.55
2022-09-06T03:30:27.434Z,1.60
2022-09-06T03:31:01.817Z,1.60
2022-09-06T03:31:40.473Z,1.60
2022-09-06T03:32:14.489Z,1.70
2022-09-06T03:32:49.241Z,1.80
2022-09-06T03:33:24.401Z,1.80
2022-09-06T03:33:58.073Z,2.00
2022-09-06T03:34:33.565Z,1.67
2022-09-06T03:35:10.257Z,1.55
2022-09-06T03:35:51.776Z,1.80
2022-09-06T03:36:27.752Z,1.60
2022-09-06T03:37:01.294Z,1.70
2022-09-06T03:37:35.382Z,1.45
2022-09-06T03:38:09.223Z,1.50
2022-09-06T03:38:45.850Z,1.80
2022-09-06T03:39:19.663Z,1.92
2022-09-06T03:39:54.198Z,1.73
2022-09-06T03:40:29.036Z,1.70
2022-09-06T03:41:02.711Z,1.55
2022-09-06T03:41:38.713Z,1.60
2022-09-06T03:42:12.757Z,1.67
2022-09-06T03:42:47.541Z,1.38
2022-09-06T03:43:23.166Z,1.50
2022-09-06T03:43:58.039Z,1.60
2022-09-06T03:44:31.829Z,1.40
2022-09-06T03:45:09.329Z,1.42
2022-09-06T03:45:46.872Z,1.17
2022-09-06T03:46:22.451Z,1.63
2022-09-06T03:46:57.721Z,1.48
2022-09-06T03:47:32.795Z,1.38
2022-09-06T03:48:06.995Z,1.45
2022-09-06T03:48:41.684Z,1.60
2022-09-06T03:49:14.746Z,1.65
2022-09-06T03:49:49.180Z,1.77
2022-09-06T03:50:24.444Z,1.70
2022-09-06T03:51:00.442Z,1.30
2022-09-06T03:51:35.183Z,1.33
2022-09-06T03:52:10.440Z,1.25
2022-09-06T03:52:45.386Z,1.75
2022-09-06T03:53:20.171Z,1.73
2022-09-06T03:53:54.635Z,1.58
2022-09-06T03:54:29.549Z,1.42
2022-09-06T03:55:04.148Z,1.38
2022-09-06T03:55:40.449Z,1.50
2022-09-06T03:56:14.093Z,1.20
2022-09-06T03:56:48.988Z,1.52
2022-09-06T03:57:22.788Z,1.20
2022-09-06T03:57:57.043Z,1.63
2022-09-06T03:58:32.922Z,1.70
2022-09-06T03:59:06.501Z,1.38
2022-09-06T03:59:41.064Z,1.55
2022-09-06T04:00:18.004Z,1.60
2022-09-06T04:01:01.196Z,1.88
2022-09-06T04:01:36.069Z,1.38
2022-09-06T04:02:09.468Z,1.50
2022-09-06T04:02:44.634Z,1.50
2022-09-06T04:03:21.174Z,1.52
2022-09-06T04:03:54.736Z,1.42
2022-09-06T04:04:28.701Z,1.42
2022-09-06T04:05:04.058Z,1.77
2022-09-06T04:05:38.010Z,1.65
2022-09-06T04:06:12.851Z,1.65
2022-09-06T04:06:48.019Z,1.80
2022-09-06T04:07:22.511Z,1.80
2022-09-06T04:07:57.437Z,1.90
2022-09-06T04:08:31.542Z,1.90
2022-09-06T04:09:06.384Z,1.77
2022-09-06T04:09:42.468Z,1.73
2022-09-06T04:10:19.147Z,2.03
2022-09-06T04:10:54.061Z,1.90
2022-09-06T04:11:28.979Z,2.00
2022-09-06T04:12:03.950Z,2.08
2022-09-06T04:12:38.148Z,2.10
2022-09-06T04:13:12.870Z,1.63
2022-09-06T04:13:47.631Z,1.60
2022-09-06T04:14:23.109Z,1.98
2022-09-06T04:14:57.275Z,2.20
2022-09-06T04:15:33.509Z,1.60
2022-09-06T04:16:08.955Z,1.95
2022-09-06T04:16:47.985Z,1.60
2022-09-06T04:17:23.246Z,1.70
2022-09-06T04:17:56.412Z,1.77
2022-09-06T04:18:30.568Z,1.90
2022-09-06T04:19:06.068Z,1.50
2022-09-06T04:19:39.686Z,1.45
2022-09-06T04:20:15.272Z,1.70
2022-09-06T04:20:49.819Z,1.40
2022-09-06T04:21:23.994Z,1.80
2022-09-06T04:21:59.447Z,2.30
2022-09-06T04:22:33.544Z,2.50
2022-09-06T04:23:07.789Z,1.70
2022-09-06T04:23:44.523Z,1.40
2022-09-06T04:24:18.549Z,2.00
2022-09-06T04:24:52.591Z,1.58
2022-09-06T04:25:28.831Z,1.70
2022-09-06T04:26:02.719Z,1.10
2022-09-06T04:26:36.771Z,1.52
2022-09-06T04:27:11.730Z,1.30
2022-09-06T04:27:46.912Z,1.10
2022-09-06T04:28:21.469Z,1.00
2022-09-06T04:28:57.385Z,1.17
2022-09-06T04:29:30.403Z,1.90
2022-09-06T04:30:05.312Z,1.50
2022-09-06T04:30:41.779Z,1.40
2022-09-06T04:31:15.727Z,1.33
2022-09-06T04:31:50.150Z,1.20
2022-09-06T04:32:24.811Z,0.95
2022-09-06T04:32:57.884Z,1.00
2022-09-06T04:33:31.936Z,1.08
2022-09-06T04:34:07.241Z,1.27
2022-09-06T04:34:41.361Z,1.40
2022-09-06T04:35:15.485Z,1.35
2022-09-06T04:35:52.128Z,1.30
2022-09-06T04:36:25.771Z,1.40
2022-09-06T04:37:00.896Z,1.10
2022-09-06T04:37:35.762Z,1.52
2022-09-06T04:38:09.424Z,1.17
2022-09-06T04:38:45.978Z,1.20
2022-09-06T04:39:20.482Z,1.20
2022-09-06T04:39:55.037Z,1.10
2022-09-06T04:40:31.096Z,1.05
2022-09-06T04:41:05.005Z,1.20
2022-09-06T04:41:38.731Z,1.20
2022-09-06T04:42:17.954Z,3.22
2022-09-06T04:42:52.934Z,2.50
2022-09-06T04:43:27.603Z,2.03
2022-09-06T04:44:03.220Z,1.40
2022-09-06T04:44:37.295Z,1.70
2022-09-06T04:45:12.130Z,1.40
2022-09-06T04:45:50.279Z,1.40
2022-09-06T04:46:26.074Z,1.45
2022-09-06T04:47:09.653Z,1.05
2022-09-06T04:47:45.653Z,2.03
2022-09-06T04:48:20.535Z,1.30
2022-09-06T04:48:54.486Z,1.50
2022-09-06T04:49:29.143Z,1.38
2022-09-06T04:50:02.939Z,1.20
2022-09-06T04:50:36.791Z,1.13
2022-09-06T04:51:14.976Z,1.35
2022-09-06T04:51:49.013Z,1.20
2022-09-06T04:52:25.949Z,1.15
2022-09-06T04:53:03.616Z,1.20
2022-09-06T04:53:37.842Z,1.30
2022-09-06T04:54:12.227Z,1.50
2022-09-06T04:54:48.397Z,1.30
2022-09-06T04:55:22.673Z,1.20
2022-09-06T04:55:58.619Z,1.08
2022-09-06T04:56:32.875Z,1.30
2022-09-06T04:57:06.958Z,1.10
2022-09-06T04:57:45.798Z,1.10
2022-09-06T04:58:56.838Z,1.27
2022-09-06T04:59:31.630Z,0.95
2022-09-06T05:00:06.016Z,1.02
2022-09-06T05:00:44.897Z,1.30
2022-09-06T05:01:20.937Z,1.27
2022-09-06T05:01:55.275Z,1.13
2022-09-06T05:02:30.297Z,1.30
2022-09-06T05:03:05.788Z,1.20
2022-09-06T05:03:39.857Z,1.05
2022-09-06T05:04:13.603Z,0.90
2022-09-06T05:04:49.198Z,0.95
2022-09-06T05:05:23.320Z,0.80
2022-09-06T05:06:06.020Z,1.00
2022-09-06T05:06:42.165Z,1.13
2022-09-06T05:07:20.327Z,1.70
2022-09-06T05:07:54.692Z,1.70
2022-09-06T05:08:29.416Z,1.40
2022-09-06T05:09:04.021Z,1.33
2022-09-06T05:09:38.228Z,1.25
2022-09-06T05:10:11.369Z,1.50
2022-09-06T05:10:44.684Z,1.20
2022-09-06T05:11:20.509Z,1.13
2022-09-06T05:11:55.212Z,1.23
2022-09-06T05:12:28.900Z,1.35
2022-09-06T05:13:03.539Z,1.40
2022-09-06T05:13:37.663Z,1.20
2022-09-06T05:14:11.782Z,1.08
2022-09-06T05:14:47.215Z,1.20
2022-09-06T05:15:21.673Z,1.38
2022-09-06T05:15:56.440Z,1.15
2022-09-06T05:16:32.771Z,1.13
2022-09-06T05:17:07.282Z,1.17
2022-09-06T05:17:41.709Z,1.30
2022-09-06T05:18:16.891Z,1.65
2022-09-06T05:18:50.730Z,1.40
2022-09-06T05:19:24.893Z,1.13
2022-09-06T05:19:59.462Z,1.20
2022-09-06T05:20:34.507Z,1.10
2022-09-06T05:21:08.348Z,1.20
2022-09-06T05:21:44.246Z,1.10
2022-09-06T05:22:18.639Z,1.15
2022-09-06T05:22:56.000Z,1.17
2022-09-06T05:23:31.372Z,1.08
2022-09-06T05:24:05.680Z,1.05
2022-09-06T05:24:38.898Z,1.83
2022-09-06T05:25:15.364Z,1.60
2022-09-06T05:25:50.170Z,1.40
2022-09-06T05:26:23.473Z,1.08
2022-09-06T05:26:59.576Z,1.08
2022-09-06T05:27:33.624Z,1.25
2022-09-06T05:28:07.934Z,1.10
2022-09-06T05:28:42.089Z,1.15
2022-09-06T05:29:17.373Z,1.20
2022-09-06T05:29:52.085Z,1.20
2022-09-06T05:30:27.161Z,1.30
2022-09-06T05:31:08.882Z,1.30
2022-09-06T05:31:46.625Z,1.60
2022-09-06T05:32:20.967Z,1.40
2022-09-06T05:32:55.584Z,0.82
2022-09-06T05:33:30.757Z,1.00
2022-09-06T05:34:04.460Z,1.15
2022-09-06T05:34:39.149Z,0.90
2022-09-06T05:35:13.291Z,1.00
2022-09-06T05:35:47.448Z,1.17
2022-09-06T05:36:24.108Z,1.08
2022-09-06T05:36:57.501Z,2.20
2022-09-06T05:37:32.428Z,2.85
2022-09-06T05:38:07.929Z,1.20
2022-09-06T05:38:43.375Z,1.42
2022-09-06T05:39:19.238Z,1.30
2022-09-06T05:39:53.926Z,1.27
2022-09-06T05:40:28.366Z,1.30
2022-09-06T05:41:03.722Z,1.10
2022-09-06T05:41:38.091Z,0.80
2022-09-06T05:42:17.176Z,1.00
2022-09-06T05:42:55.073Z,1.05
2022-09-06T05:43:29.638Z,1.35
2022-09-06T05:44:04.077Z,1.13
2022-09-06T05:44:39.814Z,1.08
2022-09-06T05:45:13.914Z,0.90
2022-09-06T05:45:47.235Z,0.93
2022-09-06T05:46:22.541Z,1.20
2022-09-06T05:46:58.024Z,1.00
2022-09-06T05:47:35.990Z,1.10
2022-09-06T05:48:10.666Z,1.10
2022-09-06T05:48:44.735Z,1.08
2022-09-06T05:49:18.360Z,1.10
2022-09-06T05:49:52.508Z,1.70
2022-09-06T05:50:26.252Z,1.00
2022-09-06T05:51:03.175Z,1.08
2022-09-06T05:51:39.510Z,1.00
2022-09-06T05:52:13.046Z,0.90
2022-09-06T05:52:48.345Z,1.10
2022-09-06T05:53:23.775Z,0.98
2022-09-06T05:53:58.074Z,1.60
2022-09-06T05:54:32.277Z,0.85
2022-09-06T05:55:08.047Z,1.00
2022-09-06T05:55:43.229Z,1.00
2022-09-06T05:56:19.137Z,0.90
2022-09-06T05:56:55.279Z,1.10
2022-09-06T05:57:28.558Z,1.10
2022-09-06T05:58:02.486Z,1.08
2022-09-06T05:58:38.536Z,1.20
2022-09-06T05:59:12.666Z,1.00
2022-09-06T05:59:46.835Z,0.73
2022-09-06T06:00:23.792Z,0.93
2022-09-06T06:01:06.140Z,0.70
2022-09-06T06:01:49.168Z,1.00
2022-09-06T06:02:24.985Z,1.00
2022-09-06T06:02:59.391Z,1.75
2022-09-06T06:03:34.895Z,0.80
2022-09-06T06:04:09.621Z,1.13
2022-09-06T06:04:44.853Z,0.88
2022-09-06T06:05:19.841Z,1.13
2022-09-06T06:05:54.032Z,0.93
2022-09-06T06:06:29.701Z,3.22
2022-09-06T06:07:04.221Z,1.60
2022-09-06T06:07:39.789Z,1.10
2022-09-06T06:08:14.247Z,0.82
2022-09-06T06:08:48.876Z,0.98
2022-09-06T06:09:24.468Z,0.80
2022-09-06T06:09:58.593Z,0.73
2022-09-06T06:10:35.484Z,0.98
2022-09-06T06:11:13.690Z,1.40
2022-09-06T06:11:47.792Z,1.75
2022-09-06T06:12:22.968Z,1.17
2022-09-06T06:12:59.453Z,0.93
2022-09-06T06:13:39.990Z,0.82
2022-09-06T06:14:15.860Z,0.90
2022-09-06T06:14:50.319Z,0.80
2022-09-06T06:15:26.007Z,0.82
2022-09-06T06:16:01.515Z,1.48
2022-09-06T06:16:35.634Z,1.60
2022-09-06T06:17:11.026Z,1.25
2022-09-06T06:17:45.516Z,1.20
2022-09-06T06:18:20.228Z,0.98
2022-09-06T06:18:55.444Z,1.73
2022-09-06T06:19:29.832Z,1.10
2022-09-06T06:20:04.828Z,1.23
2022-09-06T06:20:39.665Z,1.00
2022-09-06T06:21:14.521Z,1.00
2022-09-06T06:21:50.682Z,1.30
2022-09-06T06:22:25.164Z,1.05
2022-09-06T06:22:59.142Z,1.25
2022-09-06T06:23:34.277Z,1.15
2022-09-06T06:24:08.623Z,1.33
2022-09-06T06:24:44.209Z,1.77
2022-09-06T06:25:23.810Z,1.95
2022-09-06T06:25:57.607Z,2.20
2022-09-06T06:26:33.254Z,2.22
2022-09-06T06:27:08.257Z,1.80
2022-09-06T06:27:42.885Z,1.42
2022-09-06T06:28:17.329Z,1.42
2022-09-06T06:28:52.732Z,1.75
2022-09-06T06:29:27.005Z,1.77
2022-09-06T06:30:02.762Z,1.40
2022-09-06T06:30:37.174Z,1.60
2022-09-06T06:31:12.742Z,1.42
2022-09-06T06:31:48.321Z,1.95
2022-09-06T06:32:22.757Z,2.50
2022-09-06T06:32:59.524Z,1.80
2022-09-06T06:33:35.411Z,1.80
2022-09-06T06:34:09.024Z,2.17
2022-09-06T06:34:45.912Z,1.75
2022-09-06T06:35:20.139Z,1.85
2022-09-06T06:36:04.019Z,2.47
2022-09-06T06:36:39.142Z,1.83
2022-09-06T06:37:12.932Z,1.77
2022-09-06T06:37:47.726Z,1.77
2022-09-06T06:38:23.487Z,1.95
2022-09-06T06:38:57.346Z,1.63
2022-09-06T06:39:33.806Z,1.60
2022-09-06T06:40:09.676Z,2.03
2022-09-06T06:40:46.932Z,1.63
2022-09-06T06:41:24.656Z,1.58
2022-09-06T06:41:59.545Z,2.03
2022-09-06T06:42:45.972Z,2.00
2022-09-06T06:43:19.665Z,2.45
2022-09-06T06:43:54.425Z,1.95
2022-09-06T06:44:29.076Z,2.75
2022-09-06T06:45:03.063Z,2.58
2022-09-06T06:45:37.927Z,2.40
2022-09-06T06:46:13.848Z,2.50
2022-09-06T06:46:47.914Z,2.47
2022-09-06T06:47:23.039Z,2.47
2022-09-06T06:47:59.571Z,2.42
2022-09-06T06:48:33.805Z,2.38
2022-09-06T06:49:08.652Z,3.20
2022-09-06T06:49:41.990Z,3.42
2022-09-06T06:50:17.276Z,2.55
2022-09-06T06:50:51.941Z,2.60
2022-09-06T06:51:25.997Z,2.58
2022-09-06T06:52:00.163Z,2.72
2022-09-06T06:52:34.873Z,2.63
2022-09-06T06:53:08.234Z,3.25
2022-09-06T06:53:42.471Z,3.65
2022-09-06T06:54:17.805Z,3.42
2022-09-06T06:54:52.128Z,3.65
2022-09-06T06:55:25.389Z,3.47
2022-09-06T06:55:59.485Z,3.30
2022-09-06T06:56:41.507Z,3.22
2022-09-06T06:57:15.956Z,3.47
2022-09-06T06:57:50.899Z,2.60
2022-09-06T06:58:25.998Z,3.00
2022-09-06T06:59:00.413Z,3.30
2022-09-06T06:59:35.086Z,3.33
2022-09-06T07:00:12.093Z,3.50
2022-09-06T07:00:48.228Z,3.65
2022-09-06T07:01:23.418Z,3.45
2022-09-06T07:01:59.846Z,3.60
2022-09-06T07:02:34.301Z,3.38
2022-09-06T07:03:11.120Z,5.03
2022-09-06T07:03:45.644Z,4.18
2022-09-06T07:04:20.925Z,3.22
2022-09-06T07:04:54.806Z,3.45
2022-09-06T07:07:34.354Z,3.40
2022-09-06T07:08:12.849Z,3.30
2022-09-06T07:08:47.802Z,3.35
2022-09-06T07:09:23.258Z,3.53
2022-09-06T07:10:52.210Z,3.13
2022-09-06T07:11:26.265Z,3.25
2022-09-06T07:12:00.993Z,3.00
2022-09-06T07:12:36.910Z,3.55
2022-09-06T07:13:11.699Z,3.60
2022-09-06T07:13:47.527Z,2.83
2022-09-06T07:14:21.271Z,3.30
2022-09-06T07:14:55.786Z,3.00
2022-09-06T07:15:31.912Z,3.53
2022-09-06T07:16:09.457Z,9.77
2022-09-06T07:16:44.492Z,5.10
2022-09-06T07:17:18.501Z,3.60
2022-09-06T07:17:54.327Z,8.52
2022-09-06T07:18:30.041Z,8.02
2022-09-06T07:19:04.411Z,3.83
2022-09-06T07:22:22.711Z,4.18
2022-09-06T07:24:52.208Z,3.30
2022-09-06T07:25:26.983Z,3.72
2022-09-06T07:26:00.820Z,3.60
2022-09-06T07:26:35.975Z,3.50
2022-09-06T07:28:07.735Z,3.50
2022-09-06T07:28:42.519Z,3.58
2022-09-06T07:29:17.332Z,3.40
2022-09-06T07:29:50.370Z,3.88
2022-09-06T07:30:24.772Z,3.55
2022-09-06T07:31:01.475Z,3.90
2022-09-06T07:32:33.269Z,9.75
2022-09-06T07:33:07.512Z,4.78
2022-09-06T07:33:45.396Z,3.58
2022-09-06T07:34:18.656Z,4.00
2022-09-06T07:34:52.555Z,4.15
2022-09-06T07:35:28.488Z,3.70
2022-09-06T07:36:03.589Z,4.00
2022-09-06T07:36:39.017Z,3.40
2022-09-06T07:37:14.094Z,2.92
2022-09-06T07:37:53.541Z,8.32
2022-09-06T07:38:29.401Z,3.72
2022-09-06T07:39:04.143Z,3.00
2022-09-06T07:39:39.761Z,3.03
2022-09-06T07:40:14.490Z,3.67
2022-09-06T07:40:54.767Z,3.08
2022-09-06T07:41:28.479Z,3.40
2022-09-06T07:42:05.224Z,2.92
2022-09-06T07:42:38.730Z,2.92
2022-09-06T07:43:12.917Z,3.17
2022-09-06T07:43:48.144Z,2.72
2022-09-06T07:44:21.383Z,2.60
2022-09-06T07:44:58.816Z,2.80
2022-09-06T07:45:35.929Z,3.00
2022-09-06T07:46:11.604Z,2.67
2022-09-06T07:46:54.535Z,2.88
2022-09-06T07:48:23.473Z,2.50
2022-09-06T07:48:58.802Z,2.67
2022-09-06T07:49:37.373Z,2.80
2022-09-06T07:51:08.485Z,2.67
2022-09-06T07:51:41.592Z,2.85
2022-09-06T07:53:31.651Z,3.13
2022-09-06T07:54:29.878Z,2.75
2022-09-06T07:55:01.846Z,3.10
2022-09-06T07:55:37.183Z,2.65
2022-09-06T07:56:13.792Z,2.63
2022-09-06T07:56:47.770Z,3.10
2022-09-06T07:57:21.083Z,2.78
2022-09-06T07:58:24.358Z,2.97
2022-09-06T07:59:00.760Z,3.00
2022-09-06T07:59:33.872Z,3.25
2022-09-06T08:00:17.074Z,3.10
2022-09-06T08:00:55.417Z,2.92
2022-09-06T08:01:34.436Z,2.97
2022-09-06T08:02:10.491Z,3.20
2022-09-06T08:02:44.485Z,2.90
2022-09-06T08:03:22.220Z,2.60
2022-09-06T08:04:34.776Z,2.70
2022-09-06T08:07:40.700Z,3.40
2022-09-06T08:09:11.004Z,6.10
2022-09-06T08:09:44.590Z,4.78
2022-09-06T08:10:18.892Z,3.25
2022-09-06T08:10:53.779Z,3.22
2022-09-06T08:11:28.667Z,3.13
2022-09-06T08:12:06.809Z,2.80
2022-09-06T08:12:42.703Z,3.35
2022-09-06T08:13:17.041Z,3.13
2022-09-06T08:13:53.384Z,2.95
2022-09-06T08:14:29.025Z,3.08
2022-09-06T08:15:04.321Z,3.10
2022-09-06T08:15:41.642Z,2.95
2022-09-06T08:16:17.540Z,3.10
2022-09-06T08:17:20.793Z,2.83
2022-09-06T08:17:54.857Z,2.67